W56 EFOU-EFRO

Flight info

Callsign W56
Flight time 0h 27m
Altitude 24000
Route UPEDU DCT RENVI
Aircraft LJ35/M-SGHRWXY/SB1

Departure

Time 2026-04-26 10:27
Airport Oulu Airport (EFOU)

Arrival

Time 2026-04-26 10:54
Airport Rovaniemi Airport (EFRO)
Time Latitude Longitude Altitude Speed Heading
2026-04-26 09:54 64.93126 25.33638 49 ft 0 kts 283°
2026-04-26 10:23 64.93171 25.33614 49 ft 15 kts 11°
2026-04-26 10:23 64.93273 25.33731 49 ft 19 kts 66°
2026-04-26 10:24 64.93388 25.33934 50 ft 22 kts 33°
2026-04-26 10:24 64.93520 25.34164 49 ft 26 kts 74°
2026-04-26 10:24 64.93440 25.34544 48 ft 28 kts 121°
2026-04-26 10:24 64.93329 25.34979 46 ft 31 kts 121°
2026-04-26 10:25 64.93222 25.35401 45 ft 29 kts 122°
2026-04-26 10:25 64.93107 25.35850 44 ft 35 kts 120°
2026-04-26 10:25 64.92976 25.36365 42 ft 39 kts 120°
2026-04-26 10:25 64.92852 25.36452 41 ft 22 kts 211°
2026-04-26 10:26 64.92830 25.36187 44 ft 14 kts 300°
2026-04-26 10:26 64.92847 25.36118 44 ft 0 kts 301°
2026-04-26 10:26 64.92955 25.35694 43 ft 95 kts 301°
2026-04-26 10:26 64.93506 25.33498 613 ft 200 kts 301°
2026-04-26 10:27 64.94271 25.30252 2117 ft 228 kts 302°
2026-04-26 10:27 64.94994 25.27161 2632 ft 213 kts 308°
2026-04-26 10:27 64.96116 25.24438 3829 ft 249 kts 326°
2026-04-26 10:27 64.97687 25.22204 5975 ft 268 kts 337°
2026-04-26 10:28 64.99357 25.20736 7105 ft 265 kts 348°
2026-04-26 10:28 65.01239 25.20222 9269 ft 281 kts
2026-04-26 10:28 65.03148 25.20617 11241 ft 267 kts 10°
2026-04-26 10:28 65.04977 25.21805 11800 ft 279 kts 21°
2026-04-26 10:29 65.06706 25.23953 12504 ft 282 kts 32°
2026-04-26 10:29 65.08233 25.26934 13173 ft 288 kts 44°
2026-04-26 10:29 65.09500 25.30667 13812 ft 294 kts 54°
2026-04-26 10:29 65.10454 25.35016 14372 ft 302 kts 65°
2026-04-26 10:30 65.11056 25.39855 14903 ft 310 kts 77°
2026-04-26 10:30 65.11490 25.44896 15404 ft 313 kts 68°
2026-04-26 10:30 65.12644 25.49244 15915 ft 313 kts 44°
2026-04-26 10:30 65.14459 25.52055 16603 ft 315 kts 15°
2026-04-26 10:31 65.16603 25.52507 18493 ft 313 kts 351°
2026-04-26 10:31 65.18707 25.51280 19927 ft 319 kts 340°
2026-04-26 10:31 65.20848 25.49671 21421 ft 327 kts 341°
2026-04-26 10:31 65.23082 25.48352 22855 ft 336 kts 347°
2026-04-26 10:32 65.25447 25.47578 23767 ft 357 kts 354°
2026-04-26 10:32 65.28035 25.47696 23811 ft 396 kts
2026-04-26 10:32 65.30887 25.48316 23821 ft 426 kts
2026-04-26 10:32 65.33935 25.48753 23822 ft 451 kts
2026-04-26 10:33 65.36996 25.49137 23816 ft 420 kts
2026-04-26 10:33 65.39788 25.49200 23813 ft 385 kts 358°
2026-04-26 10:33 65.42378 25.49223 23808 ft 361 kts 359°
2026-04-26 10:33 65.44825 25.49390 23520 ft 347 kts
2026-04-26 10:34 65.47247 25.49587 22536 ft 348 kts 360°
2026-04-26 10:34 65.49648 25.49724 21781 ft 342 kts 359°
2026-04-26 10:34 65.52016 25.49841 21032 ft 338 kts 359°
2026-04-26 10:34 65.54352 25.49976 20291 ft 334 kts 360°
2026-04-26 10:35 65.56659 25.50123 19603 ft 329 kts 360°
2026-04-26 10:35 65.58939 25.50257 18932 ft 326 kts 360°
2026-04-26 10:35 65.61186 25.50382 18316 ft 323 kts 360°
2026-04-26 10:35 65.63430 25.50515 17680 ft 319 kts
2026-04-26 10:36 65.65634 25.50647 17038 ft 315 kts
2026-04-26 10:36 65.67814 25.50776 16413 ft 312 kts
2026-04-26 10:36 65.69977 25.50903 15896 ft 308 kts
2026-04-26 10:36 65.72109 25.51029 15339 ft 305 kts
2026-04-26 10:37 65.74230 25.51154 14859 ft 304 kts
2026-04-26 10:37 65.76333 25.51280 14429 ft 301 kts
2026-04-26 10:37 65.78421 25.51408 14008 ft 299 kts
2026-04-26 10:37 65.80497 25.51531 13596 ft 298 kts
2026-04-26 10:38 65.82563 25.51653 13165 ft 297 kts
2026-04-26 10:38 65.84612 25.51778 12920 ft 293 kts
2026-04-26 10:38 65.86652 25.51898 12656 ft 292 kts
2026-04-26 10:38 65.88679 25.52021 12375 ft 290 kts
2026-04-26 10:39 65.90666 25.52140 12097 ft 289 kts
2026-04-26 10:39 65.92664 25.52262 11755 ft 286 kts
2026-04-26 10:39 65.94651 25.52380 11375 ft 285 kts
2026-04-26 10:39 65.96625 25.52499 11019 ft 283 kts
2026-04-26 10:40 65.98589 25.52617 10673 ft 281 kts
2026-04-26 10:40 66.00537 25.52734 10332 ft 279 kts
2026-04-26 10:40 66.02472 25.52854 9998 ft 278 kts
2026-04-26 10:40 66.04398 25.52972 9678 ft 276 kts
2026-04-26 10:41 66.06314 25.53089 9351 ft 275 kts
2026-04-26 10:41 66.08222 25.53203 9040 ft 273 kts
2026-04-26 10:41 66.10121 25.53355 8740 ft 272 kts
2026-04-26 10:41 66.11999 25.53518 8277 ft 270 kts
2026-04-26 10:42 66.13864 25.53668 7733 ft 264 kts
2026-04-26 10:42 66.15742 25.53809 6850 ft 275 kts
2026-04-26 10:42 66.17643 25.53965 6398 ft 273 kts
2026-04-26 10:42 66.19542 25.54123 5835 ft 274 kts
2026-04-26 10:43 66.21449 25.54272 5259 ft 273 kts
2026-04-26 10:43 66.23298 25.54455 4621 ft 258 kts
2026-04-26 10:43 66.25023 25.54767 4169 ft 238 kts
2026-04-26 10:43 66.26745 25.54851 3047 ft 250 kts
2026-04-26 10:44 66.28372 25.54834 2763 ft 235 kts
2026-04-26 10:44 66.30074 25.54932 2324 ft 245 kts
2026-04-26 10:44 66.31685 25.55094 2313 ft 219 kts
2026-04-26 10:44 66.33153 25.55213 2320 ft 204 kts
2026-04-26 10:45 66.34525 25.55313 2302 ft 189 kts
2026-04-26 10:45 66.35788 25.55427 2306 ft 175 kts
2026-04-26 10:45 66.36972 25.55526 2318 ft 166 kts
2026-04-26 10:45 66.38110 25.55618 2288 ft 161 kts
2026-04-26 10:46 66.39207 25.55688 2309 ft 157 kts
2026-04-26 10:46 66.40354 25.55793 2327 ft 172 kts
2026-04-26 10:46 66.41582 25.56220 2305 ft 185 kts 20°
2026-04-26 10:46 66.42715 25.57914 2307 ft 194 kts 26°
2026-04-26 10:47 66.44028 25.58582 2317 ft 196 kts 12°
2026-04-26 10:47 66.45171 25.60534 2372 ft 206 kts 40°
2026-04-26 10:47 66.46214 25.63028 2503 ft 211 kts 42°
2026-04-26 10:47 66.47256 25.65628 2475 ft 217 kts 40°
2026-04-26 10:48 66.48416 25.68123 2439 ft 222 kts 37°
2026-04-26 10:48 66.49648 25.70562 2213 ft 230 kts 35°
2026-04-26 10:48 66.50928 25.72927 2129 ft 226 kts 33°
2026-04-26 10:48 66.52222 25.75228 1897 ft 229 kts 32°
2026-04-26 10:49 66.53517 25.77539 1548 ft 228 kts 33°
2026-04-26 10:49 66.54788 25.79897 1142 ft 223 kts 35°
2026-04-26 10:49 66.55969 25.82151 980 ft 204 kts 34°
2026-04-26 10:49 66.57058 25.84219 842 ft 194 kts 34°
2026-04-26 10:50 66.58189 25.85845 1037 ft 179 kts
2026-04-26 10:50 66.58854 25.84943 1380 ft 169 kts 303°
2026-04-26 10:50 66.58659 25.81188 1533 ft 184 kts 242°
2026-04-26 10:50 66.57875 25.78471 1447 ft 191 kts 234°
2026-04-26 10:51 66.56910 25.76237 1299 ft 190 kts 213°
2026-04-26 10:51 66.54656 25.73223 1290 ft 178 kts 208°
2026-04-26 10:51 66.53511 25.71923 1361 ft 183 kts 206°
2026-04-26 10:52 66.52684 25.71772 1519 ft 177 kts 154°
2026-04-26 10:52 66.52261 25.74085 1474 ft 153 kts 55°
2026-04-26 10:52 66.52906 25.76229 1224 ft 154 kts 41°
2026-04-26 10:52 66.53692 25.77803 1081 ft 139 kts 33°
2026-04-26 10:53 66.54448 25.79225 887 ft 135 kts 32°
2026-04-26 10:53 66.55210 25.80635 703 ft 138 kts 32°
2026-04-26 10:53 66.55921 25.81976 618 ft 111 kts 36°
2026-04-26 10:54 66.56606 25.83240 628 ft 28 kts 34°
2026-04-26 10:54 66.56793 25.83339 630 ft 24 kts 352°
2026-04-26 10:54 66.56909 25.83301 637 ft 16 kts 353°
2026-04-26 10:54 66.56961 25.83286 638 ft 1 kts 353°
2026-04-26 10:55 66.56998 25.83274 638 ft 10 kts 352°
2026-04-26 10:55 66.57020 25.83182 640 ft 0 kts 261°